Terminal Aerodrome Forecast
Issued by NWS

Home | Current Version | Previous Version | Text Only | Print | Product List | Glossary On
Versions: 1 2 3 4 5 6 7 8 9 10 11 12 13
000
FTUS43 KDMX 192340
TAFOTM
TAF
KOTM 192340Z 2000/2024 16014KT P6SM SKC
     FM201000 16009KT P6SM BKN016
     FM201200 16010KT 3SM BR VCTS OVC007CB
     FM201400 15012G17KT 1SM -RA BR VCTS OVC006CB
     FM201800 17012G19KT 5SM -SHRA OVC010
     FM202100 20010KT P6SM OVC040=

USA.gov is the U.S. government's official web portal to all federal, state and local government web resources and services.